Nypd 316 — WDI5351 — position and weather

sailwx.info

Track history (hours):
 
Tides and Currents Weather Stations Pressure Air Temp Water Temp Dewpoint Dewpoint Depression Visibility Wind Speed Wind Dir Waves Ship Positions

Nypd 316

Owner: New York City Police Department, Brooklyn, NY. More information available from US FCC via Universal Licensing System.

Last reported at 2017-Oct-14 22:41 UTC. Time now 2017-Oct-18 20:34 UTC.
Position N 40°39' W 074°02'.

Length 11 m; draft 1 m.

Type: Law enforcement. MMSI: 367707670.

Date/timePositionNaut miles runAvg speedWind from/ knotsBaromVisibWave heightAir tempDewpointWater temp
2017-Oct-14 22:41N 40°39' W 074°02'212.9
2017-Oct-14 22:30N 40°36' W 074°03'  
2017-Oct-11 23:41N 40°39' W 074°02'1 3.3
2017-Oct-11 23:30N 40°38' W 074°02'8 1.5
2017-Oct-11 18:18N 40°37' W 074°12'311.2
2017-Oct-11 18:00N 40°38' W 074°09'612.3
2017-Oct-11 17:30N 40°40' W 074°01'2 3.6
2017-Oct-11 17:01N 40°39' W 074°02'  
2017-Oct-08 18:22N 40°39' W 074°02'4 9.5
2017-Oct-08 17:59N 40°42' W 073°60'0 0.4
2017-Oct-08 17:30N 40°43' W 073°60'0 0.0
2017-Oct-08 17:00N 40°43' W 073°60'0 0.0
2017-Oct-08 16:29N 40°43' W 073°60'0 0.0
2017-Oct-08 16:00N 40°43' W 073°60'0 0.0
2017-Oct-08 15:30N 40°43' W 073°60'0 0.0
2017-Oct-08 15:00N 40°43' W 073°60'0 0.0
2017-Oct-08 14:30N 40°43' W 073°60'0 0.0
2017-Oct-08 14:00N 40°43' W 073°60'0 0.0
2017-Oct-08 13:30N 40°43' W 073°60'0 0.0
2017-Oct-08 13:00N 40°43' W 073°60'0 0.8
2017-Oct-08 12:30N 40°42' W 073°60'4 7.5
2017-Oct-08 12:00N 40°39' W 074°02'0 0.0
2017-Oct-08 00:19N 40°39' W 074°02'310.4
2017-Oct-08 00:00N 40°36' W 074°02'510.7
2017-Oct-07 23:30N 40°34' W 073°55'3 1.1
2017-Oct-07 21:17N 40°37' W 073°54'2 7.4
2017-Oct-07 21:00N 40°35' W 073°52'1 1.8
2017-Oct-07 20:27N 40°34' W 073°53'613.7
2017-Oct-07 20:00N 40°35' W 074°01'2 3.5
2017-Oct-07 19:30N 40°36' W 074°03'1 1.1
2017-Oct-07 19:00N 40°36' W 074°03'0 0.5
2017-Oct-07 18:30N 40°37' W 074°02'1 2.5
2017-Oct-07 17:59N 40°38' W 074°03'1 2.2
2017-Oct-07 17:29N 40°39' W 074°02'0 0.0
2017-Oct-07 00:52N 40°39' W 074°02'2 5.3
2017-Oct-07 00:30N 40°37' W 074°03'5 1.8
2017-Oct-06 21:31N 40°35' W 073°56'0 2.5
2017-Oct-06 21:27N 40°35' W 073°55'2 3.4
2017-Oct-06 20:58N 40°36' W 073°54'0 1.0
2017-Oct-06 20:29N 40°36' W 073°53'4 4.5
2017-Oct-06 19:41N 40°34' W 073°57'210.5
2017-Oct-06 19:30N 40°33' W 073°55'2 3.9
2017-Oct-06 19:00N 40°34' W 073°57'611.8
2017-Oct-06 18:30N 40°39' W 074°02'0 0.1
2017-Oct-06 18:00N 40°39' W 074°02'4 7.3
2017-Oct-06 17:31N 40°42' W 074°01'1 1.2
2017-Oct-06 17:00N 40°43' W 074°01'917.0
2017-Oct-06 16:30N 40°51' W 073°57'0 0.9
2017-Oct-06 16:00N 40°50' W 073°58'5 9.9
2017-Oct-06 15:30N 40°46' W 074°00'9 9.3
2017-Oct-06 14:34N 40°54' W 073°55'226.7
2017-Oct-06 14:30N 40°52' W 073°56'713.2
2017-Oct-06 14:00N 40°46' W 073°60'4 8.2
2017-Oct-06 13:31N 40°42' W 074°01'4 7.2
2017-Oct-06 13:00N 40°39' W 074°02'0 0.0
2017-Oct-06 12:30N 40°39' W 074°02'0 0.0
2017-Oct-06 12:00N 40°39' W 074°02'0 0.0
2017-Oct-06 00:27N 40°39' W 074°02'4 8.4
2017-Oct-06 00:00N 40°35' W 074°01'5 3.4
2017-Oct-05 22:33N 40°34' W 073°55'125.0
2017-Oct-05 22:30N 40°34' W 073°54'3 5.7
2017-Oct-05 21:56N 40°35' W 073°50'2 2.1
2017-Oct-05 21:11N 40°35' W 073°52'2 5.3
2017-Oct-05 20:53N 40°35' W 073°54'2 3.0
2017-Oct-05 20:18N 40°36' W 073°54'0 0.1
2017-Oct-05 19:59N 40°36' W 073°54'1 1.6
2017-Oct-05 19:29N 40°36' W 073°53'3 5.6
2017-Oct-05 19:00N 40°34' W 073°54'5 9.1
2017-Oct-05 18:29N 40°34' W 074°01'5 9.7
2017-Oct-05 18:00N 40°39' W 074°02'0 0.2
2017-Oct-05 16:37N 40°39' W 074°02'11 9.8
2017-Oct-05 15:30N 40°48' W 073°54'2 2.7
2017-Oct-05 14:47N 40°47' W 073°52'518.7
2017-Oct-05 14:30N 40°45' W 073°58'713.3
2017-Oct-05 14:00N 40°39' W 074°02'0 0.0
2017-Oct-05 13:30N 40°39' W 074°02'  
Track history (hours):
 
Tides and Currents Weather Stations Pressure Air Temp Water Temp Dewpoint Dewpoint Depression Visibility Wind Speed Wind Dir Waves Ship Positions

Nypd 316

Owner: New York City Police Department, Brooklyn, NY. More information available from US FCC via Universal Licensing System.

Last reported at 2017-Oct-14 22:41 UTC. Time now 2017-Oct-18 20:34 UTC.
Position N 40°39' W 074°02'.

Length 11 m; draft 1 m.

Type: Law enforcement. MMSI: 367707670.

Date/timePositionNaut miles runAvg speedWind from/ knotsBaromVisibWave heightAir tempDewpointWater temp
2017-Oct-14 22:41N 40°39' W 074°02'212.9
2017-Oct-14 22:30N 40°36' W 074°03'  
2017-Oct-11 23:41N 40°39' W 074°02'1 3.3
2017-Oct-11 23:30N 40°38' W 074°02'8 1.5
2017-Oct-11 18:18N 40°37' W 074°12'311.2
2017-Oct-11 18:00N 40°38' W 074°09'612.3
2017-Oct-11 17:30N 40°40' W 074°01'2 3.6
2017-Oct-11 17:01N 40°39' W 074°02'  
2017-Oct-08 18:22N 40°39' W 074°02'4 9.5
2017-Oct-08 17:59N 40°42' W 073°60'0 0.4
2017-Oct-08 17:30N 40°43' W 073°60'0 0.0
2017-Oct-08 17:00N 40°43' W 073°60'0 0.0
2017-Oct-08 16:29N 40°43' W 073°60'0 0.0
2017-Oct-08 16:00N 40°43' W 073°60'0 0.0
2017-Oct-08 15:30N 40°43' W 073°60'0 0.0
2017-Oct-08 15:00N 40°43' W 073°60'0 0.0
2017-Oct-08 14:30N 40°43' W 073°60'0 0.0
2017-Oct-08 14:00N 40°43' W 073°60'0 0.0
2017-Oct-08 13:30N 40°43' W 073°60'0 0.0
2017-Oct-08 13:00N 40°43' W 073°60'0 0.8
2017-Oct-08 12:30N 40°42' W 073°60'4 7.5
2017-Oct-08 12:00N 40°39' W 074°02'0 0.0
2017-Oct-08 00:19N 40°39' W 074°02'310.4
2017-Oct-08 00:00N 40°36' W 074°02'510.7
2017-Oct-07 23:30N 40°34' W 073°55'3 1.1
2017-Oct-07 21:17N 40°37' W 073°54'2 7.4
2017-Oct-07 21:00N 40°35' W 073°52'1 1.8
2017-Oct-07 20:27N 40°34' W 073°53'613.7
2017-Oct-07 20:00N 40°35' W 074°01'2 3.5
2017-Oct-07 19:30N 40°36' W 074°03'1 1.1
2017-Oct-07 19:00N 40°36' W 074°03'0 0.5
2017-Oct-07 18:30N 40°37' W 074°02'1 2.5
2017-Oct-07 17:59N 40°38' W 074°03'1 2.2
2017-Oct-07 17:29N 40°39' W 074°02'0 0.0
2017-Oct-07 00:52N 40°39' W 074°02'2 5.3
2017-Oct-07 00:30N 40°37' W 074°03'5 1.8
2017-Oct-06 21:31N 40°35' W 073°56'0 2.5
2017-Oct-06 21:27N 40°35' W 073°55'2 3.4
2017-Oct-06 20:58N 40°36' W 073°54'0 1.0
2017-Oct-06 20:29N 40°36' W 073°53'4 4.5
2017-Oct-06 19:41N 40°34' W 073°57'210.5
2017-Oct-06 19:30N 40°33' W 073°55'2 3.9
2017-Oct-06 19:00N 40°34' W 073°57'611.8
2017-Oct-06 18:30N 40°39' W 074°02'0 0.1
2017-Oct-06 18:00N 40°39' W 074°02'4 7.3
2017-Oct-06 17:31N 40°42' W 074°01'1 1.2
2017-Oct-06 17:00N 40°43' W 074°01'917.0
2017-Oct-06 16:30N 40°51' W 073°57'0 0.9
2017-Oct-06 16:00N 40°50' W 073°58'5 9.9
2017-Oct-06 15:30N 40°46' W 074°00'9 9.3
2017-Oct-06 14:34N 40°54' W 073°55'226.7
2017-Oct-06 14:30N 40°52' W 073°56'713.2
2017-Oct-06 14:00N 40°46' W 073°60'4 8.2
2017-Oct-06 13:31N 40°42' W 074°01'4 7.2
2017-Oct-06 13:00N 40°39' W 074°02'0 0.0
2017-Oct-06 12:30N 40°39' W 074°02'0 0.0
2017-Oct-06 12:00N 40°39' W 074°02'0 0.0
2017-Oct-06 00:27N 40°39' W 074°02'4 8.4
2017-Oct-06 00:00N 40°35' W 074°01'5 3.4
2017-Oct-05 22:33N 40°34' W 073°55'125.0
2017-Oct-05 22:30N 40°34' W 073°54'3 5.7
2017-Oct-05 21:56N 40°35' W 073°50'2 2.1
2017-Oct-05 21:11N 40°35' W 073°52'2 5.3
2017-Oct-05 20:53N 40°35' W 073°54'2 3.0
2017-Oct-05 20:18N 40°36' W 073°54'0 0.1
2017-Oct-05 19:59N 40°36' W 073°54'1 1.6
2017-Oct-05 19:29N 40°36' W 073°53'3 5.6
2017-Oct-05 19:00N 40°34' W 073°54'5 9.1
2017-Oct-05 18:29N 40°34' W 074°01'5 9.7
2017-Oct-05 18:00N 40°39' W 074°02'0 0.2
2017-Oct-05 16:37N 40°39' W 074°02'11 9.8
2017-Oct-05 15:30N 40°48' W 073°54'2 2.7
2017-Oct-05 14:47N 40°47' W 073°52'518.7
2017-Oct-05 14:30N 40°45' W 073°58'713.3
2017-Oct-05 14:00N 40°39' W 074°02'0 0.0
2017-Oct-05 13:30N 40°39' W 074°02'  

Dump ship's entire track history